Time;durP1;ratioP1;P1;durP2;ratioP2;P2;SDS_P1;SDS_P2;PMS_P1;PMS_P2;Temp;Humidity;BMP_temperature;BMP_pressure;BME280_temperature;BME280_humidity;BME280_pressure;Samples;Min_cycle;Max_cycle;Signal;HPM_P1;HPM_P2
2022/05/17 00:01:43;;;;;;;2.70;1.23;;;18.10;55.90;;;;;;5048102;28;20108;-80
2022/05/17 00:04:09;;;;;;;2.07;0.90;;;18.10;55.90;;;;;;5043968;28;20024;-80
2022/05/17 00:06:35;;;;;;;1.88;1.10;;;18.10;56.00;;;;;;5024658;28;20577;-80
2022/05/17 00:09:01;;;;;;;2.15;1.05;;;18.00;56.20;;;;;;5045174;28;20036;-80
2022/05/17 00:11:28;;;;;;;2.10;1.10;;;18.00;56.30;;;;;;5037682;28;20672;-81
2022/05/17 00:13:54;;;;;;;1.58;1.00;;;18.00;56.40;;;;;;5028192;28;20139;-80
2022/05/17 00:16:20;;;;;;;2.25;1.00;;;18.00;56.70;;;;;;5052319;28;20041;-80
2022/05/17 00:18:46;;;;;;;1.73;1.00;;;17.90;56.70;;;;;;5061267;28;20029;-81
2022/05/17 00:21:12;;;;;;;2.60;1.20;;;17.90;56.90;;;;;;5047837;28;20077;-80
2022/05/17 00:23:38;;;;;;;2.25;1.30;;;17.90;57.00;;;;;;5038555;28;20033;-80
2022/05/17 00:26:05;;;;;;;1.90;1.10;;;17.90;57.10;;;;;;5043262;28;20530;-80
2022/05/17 00:28:31;;;;;;;1.50;1.13;;;17.90;57.30;;;;;;5051915;28;20166;-80
2022/05/17 00:30:57;;;;;;;1.90;1.20;;;17.90;57.30;;;;;;5036852;28;20047;-80
2022/05/17 00:33:23;;;;;;;2.13;0.93;;;17.90;57.50;;;;;;5059074;28;20371;-80
2022/05/17 00:35:49;;;;;;;1.80;1.20;;;17.90;57.50;;;;;;5036096;28;20024;-80
2022/05/17 00:38:16;;;;;;;2.65;1.08;;;17.90;57.50;;;;;;5061061;28;20032;-80
2022/05/17 00:40:42;;;;;;;2.28;1.08;;;17.90;57.60;;;;;;5042753;28;20020;-80
2022/05/17 00:43:09;;;;;;;1.52;0.93;;;17.90;57.70;;;;;;5074634;28;20037;-80
2022/05/17 00:45:47;;;;;;;3.90;1.20;;;18.00;57.90;;;;;;5016705;28;20683;-80
2022/05/17 00:48:14;;;;;;;3.35;1.20;;;17.90;59.00;;;;;;5062598;28;20135;-80
2022/05/17 00:50:43;;;;;;;1.95;1.00;;;18.00;58.00;;;;;;5040196;28;20340;-80
2022/05/17 00:53:26;;;;;;;1.73;1.00;;;18.00;58.30;;;;;;5064676;28;20039;-80
2022/05/17 00:55:55;;;;;;;1.00;0.90;;;18.00;58.90;;;;;;5045692;28;20024;-80
2022/05/17 00:58:28;;;;;;;1.60;0.90;;;18.00;58.30;;;;;;5045369;28;20036;-80
2022/05/17 01:01:18;;;;;;;4.00;1.00;;;18.00;58.40;;;;;;5065702;28;20086;-80
2022/05/17 01:04:11;;;;;;;2.58;1.02;;;18.00;59.80;;;;;;5043222;28;20654;-80
2022/05/17 01:06:43;;;;;;;1.92;0.90;;;18.00;59.90;;;;;;5044698;28;20032;-80
2022/05/17 01:09:10;;;;;;;3.80;1.25;;;18.10;58.70;;;;;;5043191;28;20024;-80
2022/05/17 01:11:36;;;;;;;2.20;0.90;;;18.10;58.30;;;;;;5042545;28;20677;-80
2022/05/17 01:16:47;;;;;;;2.42;1.10;;;18.10;58.40;;;;;;5038153;28;20064;-80
2022/05/17 01:19:13;;;;;;;3.07;1.10;;;18.10;58.40;;;;;;5064749;28;20083;-80
2022/05/17 01:21:39;;;;;;;2.33;1.00;;;18.10;58.60;;;;;;5050888;28;20041;-80
2022/05/17 01:24:05;;;;;;;2.45;1.10;;;18.10;58.60;;;;;;5067683;28;20113;-80
2022/05/17 01:26:35;;;;;;;1.80;1.17;;;18.10;58.60;;;;;;5064938;28;20040;-80
2022/05/17 01:29:05;;;;;;;2.33;1.00;;;18.10;59.00;;;;;;5081601;28;20043;-80
2022/05/17 01:31:32;;;;;;;1.02;0.90;;;18.20;58.70;;;;;;5023259;28;20167;-80
2022/05/17 01:33:58;;;;;;;2.88;1.10;;;18.20;58.80;;;;;;5058270;28;20768;-80
2022/05/17 01:36:24;;;;;;;1.70;1.03;;;18.20;58.70;;;;;;5030252;28;20029;-80
2022/05/17 01:38:51;;;;;;;1.90;1.13;;;18.20;58.80;;;;;;5060242;28;20029;-80
2022/05/17 01:41:21;;;;;;;1.80;1.10;;;18.20;58.90;;;;;;5042100;28;20043;-80
2022/05/17 01:43:47;;;;;;;1.63;0.90;;;18.20;59.30;;;;;;5066712;28;20052;-80
2022/05/17 01:46:13;;;;;;;2.75;1.20;;;18.20;59.00;;;;;;5038134;28;20513;-80
2022/05/17 01:48:40;;;;;;;2.00;1.00;;;18.20;59.00;;;;;;5031277;28;20321;-80
2022/05/17 01:51:08;;;;;;;1.95;1.00;;;18.20;59.10;;;;;;5059127;28;20037;-80
2022/05/17 01:53:34;;;;;;;3.83;1.00;;;18.10;59.30;;;;;;5044814;28;20223;-80
2022/05/17 01:56:05;;;;;;;1.37;0.97;;;18.20;59.10;;;;;;5045748;28;20212;-80
2022/05/17 01:58:30;;;;;;;1.75;1.00;;;18.10;59.60;;;;;;5036770;28;20138;-80
2022/05/17 02:00:56;;;;;;;2.60;1.00;;;18.10;59.10;;;;;;5063332;28;20041;-80
2022/05/17 02:03:22;;;;;;;1.87;0.93;;;18.00;59.00;;;;;;5026893;28;20055;-80
2022/05/17 02:05:47;;;;;;;1.40;0.90;;;18.00;59.10;;;;;;5046649;28;20423;-80
2022/05/17 02:08:13;;;;;;;1.50;0.80;;;18.00;59.10;;;;;;5056178;28;20040;-80
2022/05/17 02:10:39;;;;;;;1.40;1.00;;;17.90;59.00;;;;;;5052466;28;20252;-80
2022/05/17 02:13:05;;;;;;;1.48;0.95;;;17.90;59.10;;;;;;5049237;28;20089;-80
2022/05/17 02:15:31;;;;;;;2.08;1.15;;;17.90;59.20;;;;;;5032739;28;20123;-80
2022/05/17 02:17:57;;;;;;;2.13;1.03;;;17.80;59.30;;;;;;5032487;28;20213;-80
2022/05/17 02:20:23;;;;;;;1.85;0.93;;;17.80;59.30;;;;;;5028835;28;20097;-80
2022/05/17 02:22:48;;;;;;;1.33;1.00;;;17.70;59.40;;;;;;5046439;28;20051;-80
2022/05/17 02:25:15;;;;;;;2.17;0.82;;;17.70;59.50;;;;;;5054195;28;20056;-80
2022/05/17 02:27:40;;;;;;;2.00;1.00;;;17.70;59.50;;;;;;5043134;28;20028;-80
2022/05/17 02:30:10;;;;;;;2.53;1.08;;;17.70;59.60;;;;;;5043278;28;20378;-80
2022/05/17 02:32:36;;;;;;;1.30;0.85;;;17.60;60.00;;;;;;5043877;28;20040;-80
2022/05/17 02:35:03;;;;;;;2.27;1.27;;;17.60;59.80;;;;;;5026333;28;20106;-80
2022/05/17 02:37:29;;;;;;;2.35;1.02;;;17.60;59.90;;;;;;5042773;28;20245;-80
2022/05/17 02:39:54;;;;;;;1.42;1.10;;;17.60;60.00;;;;;;5043320;28;20615;-80
2022/05/17 02:42:20;;;;;;;2.60;1.17;;;17.60;60.10;;;;;;5050361;28;20362;-80
2022/05/17 02:44:46;;;;;;;1.60;1.00;;;17.60;60.20;;;;;;5045080;28;20096;-80
2022/05/17 02:47:12;;;;;;;3.13;1.08;;;17.60;60.30;;;;;;5054203;28;20035;-80
2022/05/17 02:49:40;;;;;;;2.00;1.10;;;17.60;60.40;;;;;;5044368;28;20036;-80
2022/05/17 02:52:06;;;;;;;1.88;1.00;;;17.60;60.50;;;;;;5041238;28;20580;-80
2022/05/17 02:54:33;;;;;;;2.35;1.10;;;17.50;60.50;;;;;;5045472;28;20032;-80
2022/05/17 02:56:58;;;;;;;2.42;1.00;;;17.50;60.70;;;;;;5051493;28;20343;-80
2022/05/17 02:59:24;;;;;;;1.13;0.90;;;17.60;60.80;;;;;;5064435;28;20047;-80
2022/05/17 03:01:50;;;;;;;2.53;1.00;;;17.60;60.80;;;;;;5069748;28;20039;-80
2022/05/17 03:04:16;;;;;;;2.05;1.00;;;17.60;60.90;;;;;;5031782;28;20030;-80
2022/05/17 03:06:43;;;;;;;1.60;1.10;;;17.60;60.90;;;;;;5056769;28;20384;-80
2022/05/17 03:09:09;;;;;;;2.90;1.10;;;17.60;61.00;;;;;;5041758;28;20325;-80
2022/05/17 03:11:37;;;;;;;2.65;1.15;;;17.60;61.00;;;;;;5033305;28;20041;-80
2022/05/17 03:14:03;;;;;;;2.88;1.10;;;17.60;61.10;;;;;;5051088;28;20619;-80
2022/05/17 03:16:32;;;;;;;3.17;1.00;;;17.60;61.10;;;;;;5060027;28;20127;-80
2022/05/17 03:18:59;;;;;;;2.33;1.00;;;17.60;61.60;;;;;;5036235;28;20067;-80
2022/05/17 03:21:25;;;;;;;1.63;0.90;;;17.60;61.30;;;;;;5058983;28;20028;-80
2022/05/17 03:23:50;;;;;;;2.00;1.10;;;17.60;61.30;;;;;;5052427;28;20028;-80
2022/05/17 03:26:16;;;;;;;1.97;0.90;;;17.70;61.40;;;;;;5041152;28;20055;-80
2022/05/17 03:28:41;;;;;;;1.95;0.80;;;17.60;61.60;;;;;;5062545;28;20041;-80
2022/05/17 03:31:08;;;;;;;2.90;1.00;;;17.70;61.60;;;;;;5035103;28;21371;-80
2022/05/17 03:33:34;;;;;;;1.88;1.05;;;17.70;61.70;;;;;;5044731;28;20037;-80
2022/05/17 03:36:00;;;;;;;2.20;1.10;;;17.70;62.40;;;;;;5026230;28;20021;-80
2022/05/17 03:38:25;;;;;;;2.92;0.75;;;17.70;61.70;;;;;;5042885;28;20275;-80
2022/05/17 03:40:52;;;;;;;1.23;0.80;;;17.80;61.80;;;;;;5032529;28;20067;-80
2022/05/17 03:43:19;;;;;;;1.33;0.80;;;17.70;61.80;;;;;;5052370;28;20333;-80
2022/05/17 03:45:45;;;;;;;1.38;0.80;;;17.70;61.80;;;;;;5059950;28;20032;-80
2022/05/17 03:48:11;;;;;;;2.50;1.08;;;17.70;61.80;;;;;;5058655;28;20344;-80
2022/05/17 03:50:37;;;;;;;3.60;1.23;;;17.80;61.90;;;;;;5058663;28;20058;-80
2022/05/17 03:53:03;;;;;;;4.43;1.20;;;17.80;61.90;;;;;;5032946;28;20718;-80
2022/05/17 03:55:29;;;;;;;2.58;1.30;;;17.80;62.10;;;;;;5078590;28;20105;-80
2022/05/17 03:57:55;;;;;;;2.08;1.10;;;17.80;62.10;;;;;;5032075;28;20131;-80
2022/05/17 04:00:21;;;;;;;2.30;1.23;;;17.80;62.20;;;;;;5062929;28;20489;-80
2022/05/17 04:02:47;;;;;;;1.95;1.10;;;17.90;62.20;;;;;;5028649;28;20040;-80
2022/05/17 04:05:13;;;;;;;2.35;1.20;;;17.90;62.20;;;;;;5059078;28;20123;-80
2022/05/17 04:07:38;;;;;;;4.67;1.20;;;17.90;62.30;;;;;;5027119;28;20036;-80
2022/05/17 04:10:07;;;;;;;2.03;1.10;;;17.90;62.40;;;;;;5050523;28;20269;-80
2022/05/17 04:12:33;;;;;;;1.45;1.02;;;17.90;62.70;;;;;;5043507;28;20036;-80
2022/05/17 04:14:58;;;;;;;2.23;1.00;;;17.90;62.60;;;;;;5051942;28;20397;-80
2022/05/17 04:17:24;;;;;;;2.75;1.10;;;17.90;62.70;;;;;;5068804;28;20036;-80
2022/05/17 04:19:50;;;;;;;2.20;1.10;;;17.90;62.70;;;;;;5055797;28;20170;-80
2022/05/17 04:22:16;;;;;;;1.83;1.00;;;17.90;62.90;;;;;;5021671;28;20142;-80
2022/05/17 04:24:42;;;;;;;2.07;1.10;;;17.90;62.90;;;;;;5074831;28;20033;-80
2022/05/17 04:27:09;;;;;;;2.60;1.10;;;17.90;62.90;;;;;;5053577;28;20845;-80
2022/05/17 04:29:35;;;;;;;3.05;1.20;;;17.90;63.10;;;;;;5068452;28;20028;-80
2022/05/17 04:32:01;;;;;;;4.07;1.30;;;17.90;63.10;;;;;;5064373;28;20320;-80
2022/05/17 04:34:26;;;;;;;2.27;1.13;;;18.00;63.10;;;;;;5061690;28;20053;-81
2022/05/17 04:36:53;;;;;;;1.80;1.05;;;17.90;63.10;;;;;;5051598;28;20064;-80
2022/05/17 04:39:19;;;;;;;2.15;1.13;;;18.00;63.20;;;;;;5029728;28;20044;-80
2022/05/17 04:41:44;;;;;;;1.90;1.10;;;18.00;63.20;;;;;;5047129;28;20063;-80
2022/05/17 04:44:10;;;;;;;3.85;1.20;;;18.00;63.20;;;;;;5041377;28;20296;-80
2022/05/17 04:46:36;;;;;;;1.57;1.10;;;18.00;63.30;;;;;;5051899;28;20393;-80
2022/05/17 04:49:01;;;;;;;2.47;1.10;;;18.00;63.40;;;;;;5058723;28;20041;-80
2022/05/17 04:51:28;;;;;;;2.40;1.13;;;18.00;63.50;;;;;;5061720;28;20037;-80
2022/05/17 04:53:53;;;;;;;2.10;1.07;;;18.00;63.50;;;;;;5037344;28;20136;-80
2022/05/17 04:56:19;;;;;;;1.70;1.15;;;18.00;63.60;;;;;;5064879;28;20058;-80
2022/05/17 04:58:45;;;;;;;3.23;1.10;;;18.00;63.60;;;;;;5051860;28;20442;-80
2022/05/17 05:01:11;;;;;;;2.63;1.20;;;18.00;63.60;;;;;;5038347;28;20029;-80
2022/05/17 05:03:36;;;;;;;1.90;1.10;;;18.00;63.60;;;;;;5056874;28;20039;-80
2022/05/17 05:06:02;;;;;;;2.57;1.20;;;18.10;63.70;;;;;;5044080;28;20037;-80
2022/05/17 05:08:28;;;;;;;1.85;1.20;;;18.10;63.80;;;;;;5031296;28;20662;-80
2022/05/17 05:10:53;;;;;;;1.97;1.17;;;18.10;63.80;;;;;;5062214;28;20327;-80
2022/05/17 05:13:21;;;;;;;1.58;1.00;;;18.10;63.70;;;;;;5032743;28;20086;-80
2022/05/17 05:15:47;;;;;;;2.40;0.98;;;18.10;63.90;;;;;;5054588;28;20042;-80
2022/05/17 05:18:14;;;;;;;2.70;1.17;;;18.20;63.90;;;;;;5031684;28;20029;-80
2022/05/17 05:20:41;;;;;;;2.70;1.10;;;18.10;64.00;;;;;;5063996;28;20090;-80
2022/05/17 05:23:08;;;;;;;2.78;1.15;;;18.20;64.00;;;;;;5032974;28;20044;-80
2022/05/17 05:25:34;;;;;;;2.17;1.00;;;18.20;64.10;;;;;;5025174;28;20457;-80
2022/05/17 05:28:01;;;;;;;2.72;1.30;;;18.20;64.20;;;;;;5058887;28;20037;-81
2022/05/17 05:30:28;;;;;;;2.47;1.20;;;18.20;64.20;;;;;;5023257;28;20036;-80
2022/05/17 05:32:54;;;;;;;3.25;1.10;;;18.30;64.40;;;;;;5047081;28;20251;-81
2022/05/17 05:35:24;;;;;;;2.63;1.20;;;18.30;64.30;;;;;;5048779;28;20156;-80
2022/05/17 05:37:50;;;;;;;3.90;1.20;;;18.30;64.50;;;;;;5033013;28;20336;-80
2022/05/17 05:40:16;;;;;;;1.90;1.05;;;18.40;64.50;;;;;;5027158;28;20020;-80
2022/05/17 05:42:42;;;;;;;3.10;1.10;;;18.40;64.50;;;;;;5062289;28;20116;-80
2022/05/17 05:45:09;;;;;;;3.85;1.30;;;18.40;64.50;;;;;;5032855;28;20052;-80
2022/05/17 05:47:35;;;;;;;1.83;1.13;;;18.50;64.60;;;;;;5058616;28;20029;-80
2022/05/17 05:50:00;;;;;;;2.63;1.20;;;18.50;64.50;;;;;;5035008;28;20043;-80
2022/05/17 05:52:26;;;;;;;2.05;1.30;;;18.60;64.50;;;;;;5034687;28;20037;-80
2022/05/17 05:54:52;;;;;;;3.85;1.35;;;18.60;64.50;;;;;;5049889;28;20109;-80
2022/05/17 05:57:18;;;;;;;3.50;1.20;;;18.70;64.50;;;;;;5059380;28;20124;-80
2022/05/17 05:59:44;;;;;;;2.88;1.20;;;18.70;64.50;;;;;;5060035;28;20098;-81
2022/05/17 06:02:10;;;;;;;4.72;1.27;;;18.80;64.50;;;;;;5054457;28;20032;-80
2022/05/17 06:04:36;;;;;;;2.87;1.30;;;18.80;64.50;;;;;;5044881;28;20492;-80
2022/05/17 06:07:03;;;;;;;3.42;1.30;;;18.80;64.50;;;;;;5045285;28;20029;-80
2022/05/17 06:09:29;;;;;;;2.22;1.25;;;18.80;64.30;;;;;;5032191;28;20420;-80
2022/05/17 06:11:55;;;;;;;2.30;1.20;;;18.90;64.40;;;;;;5017413;28;20087;-80
2022/05/17 06:14:21;;;;;;;1.50;1.00;;;18.90;65.20;;;;;;5052351;28;20531;-80
2022/05/17 06:16:48;;;;;;;3.07;1.30;;;18.90;64.40;;;;;;5052905;28;20052;-80
2022/05/17 06:19:14;;;;;;;1.80;1.10;;;18.90;65.20;;;;;;5061179;28;20086;-80
2022/05/17 06:21:40;;;;;;;2.87;1.20;;;18.90;64.30;;;;;;5059398;28;20552;-80
2022/05/17 06:24:06;;;;;;;2.85;1.30;;;19.00;64.50;;;;;;5047492;28;20063;-81
2022/05/17 06:26:32;;;;;;;2.67;1.20;;;19.00;64.50;;;;;;5057151;28;20035;-80
2022/05/17 06:28:58;;;;;;;3.47;1.10;;;19.00;64.50;;;;;;5060037;28;20241;-81
2022/05/17 06:31:24;;;;;;;3.07;1.10;;;19.00;64.30;;;;;;5045052;28;20036;-81
2022/05/17 06:33:50;;;;;;;2.78;1.20;;;19.00;64.30;;;;;;5053458;28;20336;-81
2022/05/17 06:36:16;;;;;;;2.28;1.30;;;19.00;64.40;;;;;;5043602;28;20040;-80
2022/05/17 06:38:41;;;;;;;3.60;1.30;;;19.00;64.40;;;;;;5060167;28;20269;-80
2022/05/17 06:41:07;;;;;;;3.58;1.30;;;19.00;64.50;;;;;;5055143;28;20067;-81
2022/05/17 06:43:34;;;;;;;3.47;1.30;;;19.00;64.60;;;;;;5029132;28;20043;-81
2022/05/17 06:46:01;;;;;;;2.80;1.40;;;19.00;64.80;;;;;;5042680;28;20405;-82
2022/05/17 06:48:28;;;;;;;2.97;1.40;;;18.90;64.90;;;;;;5038298;28;20357;-81
2022/05/17 06:50:54;;;;;;;2.55;1.40;;;18.90;65.00;;;;;;5073006;28;20497;-81
2022/05/17 06:53:19;;;;;;;3.57;1.40;;;18.90;65.00;;;;;;5043772;28;20047;-80
2022/05/17 06:55:45;;;;;;;2.95;1.50;;;18.80;64.80;;;;;;5035786;28;20032;-80
2022/05/17 06:58:11;;;;;;;2.70;1.30;;;18.80;64.50;;;;;;5050857;28;20024;-80
2022/05/17 07:00:36;;;;;;;3.50;1.60;;;18.80;64.80;;;;;;5061635;28;20082;-80
2022/05/17 07:03:02;;;;;;;2.97;1.55;;;18.70;65.10;;;;;;5051360;28;20039;-80
2022/05/17 07:05:29;;;;;;;2.47;1.45;;;18.60;65.50;;;;;;5047744;28;20146;-80
2022/05/17 07:07:59;;;;;;;2.78;1.50;;;18.60;65.80;;;;;;5045017;28;20052;-80
2022/05/17 07:13:09;;;;;;;2.45;1.38;;;18.50;66.20;;;;;;5052646;28;20385;-80
2022/05/17 07:15:37;;;;;;;3.22;1.27;;;18.50;66.30;;;;;;5043203;28;20157;-80
2022/05/17 07:18:04;;;;;;;2.27;1.20;;;18.50;66.60;;;;;;5051615;28;20058;-80
2022/05/17 07:20:29;;;;;;;2.30;1.23;;;18.50;66.60;;;;;;5050373;28;20059;-80
2022/05/17 07:22:55;;;;;;;1.95;1.27;;;18.50;66.60;;;;;;5052953;28;20020;-80
2022/05/17 07:25:21;;;;;;;3.30;1.40;;;18.50;66.70;;;;;;5063935;28;20028;-80
2022/05/17 07:27:46;;;;;;;2.33;1.35;;;18.50;66.90;;;;;;5047762;28;20415;-80
2022/05/17 07:30:13;;;;;;;3.23;1.50;;;18.50;67.10;;;;;;5022720;28;20176;-80
2022/05/17 07:32:39;;;;;;;2.40;1.52;;;18.60;67.40;;;;;;5045182;28;20532;-80
2022/05/17 07:35:06;;;;;;;2.65;1.40;;;18.60;67.60;;;;;;5049667;28;20036;-80
2022/05/17 07:37:33;;;;;;;2.80;1.50;;;18.70;67.90;;;;;;5033826;28;20489;-80
2022/05/17 07:39:59;;;;;;;3.33;1.40;;;18.80;68.00;;;;;;5074673;28;20024;-80
2022/05/17 07:42:25;;;;;;;2.50;1.33;;;18.80;68.10;;;;;;5031237;28;20464;-80
2022/05/17 07:44:51;;;;;;;2.95;1.30;;;18.90;68.10;;;;;;5073168;28;20037;-80
2022/05/17 07:47:17;;;;;;;3.47;1.50;;;18.90;68.20;;;;;;5043037;28;20198;-80
2022/05/17 07:49:42;;;;;;;2.83;1.50;;;19.00;68.40;;;;;;5054196;28;20039;-80
2022/05/17 07:52:10;;;;;;;3.35;1.50;;;19.10;68.70;;;;;;5063342;28;23280;-80
2022/05/17 07:54:37;;;;;;;2.40;1.60;;;19.20;68.90;;;;;;5064839;28;20036;-80
2022/05/17 07:57:04;;;;;;;3.13;1.45;;;19.30;69.10;;;;;;5027268;28;20036;-80
2022/05/17 07:59:30;;;;;;;2.17;1.40;;;19.40;69.50;;;;;;5044740;28;20449;-80
2022/05/17 08:01:56;;;;;;;3.25;1.48;;;19.50;69.60;;;;;;5019290;28;20028;-81
2022/05/17 08:04:23;;;;;;;2.47;1.50;;;19.60;69.80;;;;;;5036307;28;20366;-80
2022/05/17 08:06:49;;;;;;;3.83;1.58;;;19.70;69.90;;;;;;5048709;28;20131;-81
2022/05/17 08:09:15;;;;;;;3.83;1.60;;;19.90;70.10;;;;;;5051772;28;20258;-81
2022/05/17 08:11:41;;;;;;;2.87;1.40;;;20.00;70.20;;;;;;5031526;28;20548;-81
2022/05/17 08:14:08;;;;;;;3.35;1.40;;;20.20;70.10;;;;;;5042545;28;20028;-81
2022/05/17 08:16:34;;;;;;;3.35;1.60;;;20.40;70.10;;;;;;5053600;28;20425;-81
2022/05/17 08:19:00;;;;;;;1.98;1.52;;;20.50;70.00;;;;;;5062369;28;20233;-81
2022/05/17 08:21:26;;;;;;;3.40;1.47;;;20.70;70.10;;;;;;5069009;28;20115;-81
2022/05/17 08:23:51;;;;;;;3.80;1.60;;;20.80;70.10;;;;;;5058528;28;20448;-81
2022/05/17 08:29:01;;;;;;;2.77;1.50;;;20.90;69.60;;;;;;5055184;28;21094;-81
2022/05/17 08:31:26;;;;;;;2.78;1.67;;;21.00;69.20;;;;;;5069833;28;20025;-81
2022/05/17 08:33:52;;;;;;;3.50;1.80;;;21.10;69.20;;;;;;5050072;28;20052;-81
2022/05/17 08:36:18;;;;;;;3.03;1.52;;;21.20;69.10;;;;;;5049615;28;20047;-81
2022/05/17 08:38:47;;;;;;;2.90;1.63;;;21.20;69.00;;;;;;5050020;28;20028;-81
2022/05/17 08:41:29;;;;;;;2.53;1.58;;;21.30;69.30;;;;;;5057776;28;20640;-81
2022/05/17 08:44:00;;;;;;;2.55;1.50;;;21.30;69.10;;;;;;5055241;28;20052;-81
2022/05/17 08:46:46;;;;;;;2.47;1.55;;;21.50;69.10;;;;;;5046966;28;20052;-81
2022/05/17 08:49:25;;;;;;;2.95;1.50;;;21.50;69.20;;;;;;5041162;28;20067;-82
2022/05/17 08:51:57;;;;;;;4.70;1.70;;;21.60;69.10;;;;;;5056491;28;20093;-81
2022/05/17 08:54:30;;;;;;;3.28;1.65;;;21.70;69.20;;;;;;5055956;28;20040;-81
2022/05/17 08:57:29;;;;;;;3.35;1.48;;;21.80;69.00;;;;;;5043243;28;20362;-81
2022/05/17 09:00:14;;;;;;;2.22;1.50;;;21.90;69.00;;;;;;5035351;28;20089;-81
2022/05/17 09:02:42;;;;;;;3.10;1.60;;;22.00;69.10;;;;;;5069315;28;20056;-81
2022/05/17 09:05:29;;;;;;;3.77;1.80;;;22.00;69.20;;;;;;5036237;28;20320;-81
2022/05/17 09:08:04;;;;;;;3.00;1.80;;;22.10;68.80;;;;;;5059851;28;20036;-81
2022/05/17 09:10:35;;;;;;;2.95;1.80;;;22.30;70.30;;;;;;5052377;28;20133;-81
2022/05/17 09:13:20;;;;;;;3.67;2.00;;;22.60;71.90;;;;;;5054074;28;20040;-81
2022/05/17 09:15:45;;;;;;;3.88;1.80;;;22.90;72.40;;;;;;5047328;28;20650;-81
2022/05/17 09:18:16;;;;;;;4.27;2.00;;;23.40;74.00;;;;;;5054476;28;20484;-81
2022/05/17 09:20:42;;;;;;;2.60;1.75;;;23.90;74.40;;;;;;5070979;28;20601;-82
2022/05/17 09:23:09;;;;;;;2.10;1.67;;;24.50;75.20;;;;;;5058372;28;20068;-82
2022/05/17 09:26:00;;;;;;;3.42;2.03;;;25.10;75.40;;;;;;5049123;28;20468;-82
2022/05/17 09:28:45;;;;;;;2.20;1.80;;;25.90;72.80;;;;;;5055526;28;20556;-81
2022/05/17 09:31:15;;;;;;;4.88;1.80;;;26.60;71.10;;;;;;5058228;28;20341;-82
2022/05/17 09:33:41;;;;;;;4.10;2.30;;;27.20;74.40;;;;;;5039028;28;20130;-82
2022/05/17 09:36:13;;;;;;;2.92;1.80;;;27.90;73.30;;;;;;5025017;28;20036;-82
2022/05/17 09:38:39;;;;;;;3.35;1.90;;;28.50;72.50;;;;;;5055218;28;20230;-82
2022/05/17 09:41:11;;;;;;;3.73;1.70;;;29.00;71.30;;;;;;5061087;28;20067;-82
2022/05/17 09:43:37;;;;;;;3.83;1.90;;;29.50;69.00;;;;;;5041069;28;20040;-81
2022/05/17 09:46:29;;;;;;;2.67;1.83;;;30.00;69.30;;;;;;5045070;28;20248;-81
2022/05/17 09:52:44;;;;;;;2.70;1.95;;;30.90;63.80;;;;;;5036022;28;20044;-81
2022/05/17 09:55:16;;;;;;;2.97;2.00;;;31.40;65.90;;;;;;5046346;28;20083;-81
2022/05/17 09:58:09;;;;;;;3.30;2.17;;;31.80;65.20;;;;;;5051440;28;20025;-82
2022/05/17 10:00:46;;;;;;;2.55;1.70;;;32.20;60.50;;;;;;5037604;28;20055;-81
2022/05/17 10:03:14;;;;;;;2.93;2.10;;;32.60;60.00;;;;;;5035120;28;20068;-81
2022/05/17 10:05:40;;;;;;;2.67;1.80;;;32.90;60.30;;;;;;5033072;28;20040;-81
2022/05/17 10:08:25;;;;;;;2.37;1.90;;;33.10;60.90;;;;;;5050623;28;20177;-81
2022/05/17 10:11:06;;;;;;;2.47;1.90;;;33.40;55.80;;;;;;5071908;28;20298;-81
2022/05/17 10:13:51;;;;;;;2.95;2.03;;;33.60;56.60;;;;;;5036867;28;20056;-81
2022/05/17 10:16:27;;;;;;;2.65;2.03;;;33.80;55.80;;;;;;5057834;28;20414;-82
2022/05/17 10:18:55;;;;;;;4.80;2.08;;;34.00;54.70;;;;;;5037695;28;20040;-82
2022/05/17 10:21:55;;;;;;;2.95;1.80;;;34.00;55.60;;;;;;5047670;28;20036;-81
2022/05/17 10:24:27;;;;;;;2.27;1.93;;;34.00;52.50;;;;;;5041949;28;20396;-81
2022/05/17 10:27:15;;;;;;;3.20;2.17;;;33.90;52.40;;;;;;5045887;28;20529;-82
2022/05/17 10:29:50;;;;;;;2.75;2.28;;;33.90;51.60;;;;;;5070445;28;20024;-82
2022/05/17 10:32:23;;;;;;;2.80;2.15;;;33.90;52.60;;;;;;5059699;28;20075;-81
2022/05/17 10:34:58;;;;;;;3.88;2.20;;;34.00;51.80;;;;;;5051748;28;20070;-82
2022/05/17 10:37:38;;;;;;;2.60;2.17;;;34.10;52.00;;;;;;5048364;28;20063;-82
2022/05/17 10:40:08;;;;;;;3.08;2.17;;;34.20;51.10;;;;;;5067202;28;20035;-81
2022/05/17 10:42:37;;;;;;;3.38;2.10;;;34.30;51.80;;;;;;5062872;28;20034;-81
2022/05/17 10:45:05;;;;;;;3.50;2.10;;;34.50;51.60;;;;;;5055018;28;20100;-81
2022/05/17 10:47:58;;;;;;;2.38;2.00;;;34.60;51.60;;;;;;5028021;28;20029;-81
2022/05/17 10:50:44;;;;;;;3.07;2.20;;;34.80;49.10;;;;;;5035660;28;20501;-81
2022/05/17 10:53:18;;;;;;;3.50;2.30;;;35.00;49.10;;;;;;5057777;28;20116;-82
2022/05/17 10:55:47;;;;;;;3.60;2.40;;;35.20;50.50;;;;;;5054489;28;20482;-82
2022/05/17 10:58:55;;;;;;;2.90;2.17;;;35.40;50.20;;;;;;5068796;28;20044;-81
2022/05/17 11:01:27;;;;;;;2.92;2.08;;;35.60;48.20;;;;;;4987456;28;20838;-81
2022/05/17 11:04:05;;;;;;;3.17;2.23;;;35.90;49.70;;;;;;5058612;28;20021;-81
2022/05/17 11:06:45;;;;;;;3.20;2.17;;;36.20;47.30;;;;;;5061539;28;20515;-81
2022/05/17 11:09:10;;;;;;;4.35;2.50;;;36.40;47.00;;;;;;5030095;28;20020;-81
2022/05/17 11:12:04;;;;;;;4.23;2.47;;;36.60;47.70;;;;;;5045822;28;20032;-82
2022/05/17 11:14:52;;;;;;;5.05;2.22;;;36.80;44.50;;;;;;5070075;28;20056;-82
2022/05/17 11:17:21;;;;;;;3.00;2.15;;;36.90;44.20;;;;;;5023858;28;20095;-82
2022/05/17 11:20:01;;;;;;;2.60;2.35;;;37.00;44.50;;;;;;5059520;28;20052;-82
2022/05/17 11:22:35;;;;;;;2.55;2.17;;;37.00;42.20;;;;;;5018971;28;20245;-82
2022/05/17 11:25:18;;;;;;;3.07;2.23;;;36.80;42.40;;;;;;5039858;28;20032;-82
2022/05/17 11:28:00;;;;;;;3.05;2.20;;;36.70;42.20;;;;;;5045550;28;20032;-82
2022/05/17 11:30:34;;;;;;;2.80;2.08;;;36.50;40.90;;;;;;5044895;28;21848;-81
2022/05/17 11:33:21;;;;;;;3.30;2.15;;;36.20;41.00;;;;;;5055515;28;20047;-81
2022/05/17 11:35:50;;;;;;;2.40;1.90;;;35.90;40.30;;;;;;5050092;28;20102;-82
2022/05/17 11:38:37;;;;;;;2.30;2.00;;;35.50;42.10;;;;;;5036832;28;20028;-82
2022/05/17 11:41:14;;;;;;;4.32;2.00;;;35.20;41.00;;;;;;5035371;28;20036;-81
2022/05/17 11:43:48;;;;;;;3.60;2.08;;;34.80;40.10;;;;;;5066736;28;20036;-81
2022/05/17 11:46:28;;;;;;;2.55;1.90;;;34.50;40.90;;;;;;5057467;28;20036;-81
2022/05/17 11:49:02;;;;;;;2.78;1.95;;;34.20;40.80;;;;;;5036544;28;20032;-81
2022/05/17 11:51:36;;;;;;;3.63;1.90;;;34.00;41.90;;;;;;5017606;28;20079;-81
2022/05/17 11:54:03;;;;;;;2.63;1.90;;;33.80;41.40;;;;;;5030282;28;20089;-81
2022/05/17 11:56:32;;;;;;;2.50;1.80;;;33.60;41.40;;;;;;5064044;28;20272;-81
2022/05/17 11:58:58;;;;;;;2.35;1.80;;;33.50;42.10;;;;;;5055037;28;20474;-81
2022/05/17 12:01:28;;;;;;;2.30;1.67;;;33.40;43.40;;;;;;5040016;28;20256;-82
2022/05/17 12:04:24;;;;;;;3.07;1.80;;;33.60;43.80;;;;;;5049501;28;20044;-81
2022/05/17 12:06:52;;;;;;;3.25;1.85;;;33.80;43.20;;;;;;5038386;28;20032;-82
2022/05/17 12:09:21;;;;;;;2.33;1.60;;;34.10;43.40;;;;;;5041428;28;21889;-81
2022/05/17 12:12:11;;;;;;;2.70;1.80;;;34.20;42.10;;;;;;5045583;28;20125;-81
2022/05/17 12:14:51;;;;;;;2.97;1.30;;;34.20;41.40;;;;;;5076591;28;20020;-80
2022/05/17 12:17:26;;;;;;;1.90;1.50;;;34.10;41.10;;;;;;5047389;28;20086;-80
2022/05/17 12:20:03;;;;;;;2.42;1.60;;;34.20;41.80;;;;;;5036127;28;20039;-81
2022/05/17 12:22:38;;;;;;;1.60;1.40;;;34.40;40.80;;;;;;5046961;28;20246;-82
2022/05/17 12:25:21;;;;;;;1.80;1.30;;;34.50;40.80;;;;;;5036851;28;20032;-81
2022/05/17 12:27:47;;;;;;;3.80;1.50;;;34.80;41.90;;;;;;5049102;28;20048;-81
2022/05/17 12:33:29;;;;;;;2.20;1.40;;;35.20;38.60;;;;;;5051644;28;20068;-82
2022/05/17 12:36:10;;;;;;;2.22;1.33;;;35.50;38.60;;;;;;5073607;28;20028;-82
2022/05/17 12:44:20;;;;;;;3.10;1.70;;;35.80;36.60;;;;;;5058421;28;20028;-83
2022/05/17 12:46:49;;;;;;;2.08;1.48;;;35.80;34.80;;;;;;5052702;28;20035;-81
2022/05/17 12:49:23;;;;;;;1.30;1.20;;;35.80;34.70;;;;;;5039278;28;20594;-81
2022/05/17 12:52:08;;;;;;;1.40;1.30;;;35.80;34.70;;;;;;5022155;28;20032;-81
2022/05/17 12:54:35;;;;;;;2.15;1.38;;;35.80;34.40;;;;;;5061973;28;20029;-81
2022/05/17 12:57:15;;;;;;;2.00;1.40;;;36.00;35.40;;;;;;5022216;28;20634;-80
2022/05/17 12:59:41;;;;;;;1.55;1.30;;;36.10;34.60;;;;;;5042447;28;20024;-81
2022/05/17 13:02:06;;;;;;;2.70;1.50;;;36.20;35.00;;;;;;5044936;28;20036;-82
2022/05/17 13:04:38;;;;;;;1.50;1.40;;;36.40;34.90;;;;;;5042053;28;20032;-82
2022/05/17 13:07:13;;;;;;;1.40;1.13;;;36.50;33.60;;;;;;5057384;28;20275;-82
2022/05/17 13:10:06;;;;;;;1.50;1.23;;;36.50;32.70;;;;;;5052267;28;20408;-81
2022/05/17 13:12:37;;;;;;;2.63;1.20;;;36.70;33.30;;;;;;5039028;28;20033;-82
2022/05/17 13:15:05;;;;;;;1.35;1.15;;;36.80;32.30;;;;;;5027859;28;20328;-81
2022/05/17 13:17:34;;;;;;;1.33;1.23;;;36.80;31.90;;;;;;5046724;28;20067;-81
2022/05/17 13:20:28;;;;;;;1.42;1.33;;;36.90;32.10;;;;;;5041135;28;20695;-81
2022/05/17 13:22:56;;;;;;;2.30;1.30;;;37.10;32.00;;;;;;5027268;28;20044;-81